createdAt,value
2022-12-27T00:01:19.312Z,97825.00
2022-12-27T00:06:23.408Z,97821.00
2022-12-27T00:11:29.141Z,97828.00
2022-12-27T00:16:30.675Z,97821.00
2022-12-27T00:21:31.568Z,97830.00
2022-12-27T00:26:34.289Z,97839.00
2022-12-27T00:31:35.980Z,97845.00
2022-12-27T00:36:36.870Z,97841.00
2022-12-27T00:41:37.617Z,97836.00
2022-12-27T00:46:38.381Z,97843.00
2022-12-27T00:51:39.148Z,97839.00
2022-12-27T00:56:40.053Z,97857.00
2022-12-27T01:01:41.044Z,97859.00
2022-12-27T01:06:42.052Z,97869.00
2022-12-27T01:11:42.810Z,97867.00
2022-12-27T01:16:44.085Z,97868.00
2022-12-27T01:21:44.972Z,97858.00
2022-12-27T01:26:45.858Z,97871.00
2022-12-27T01:31:47.642Z,97876.00
2022-12-27T01:36:49.730Z,97887.00
2022-12-27T01:42:08.967Z,97885.00
2022-12-27T01:47:32.821Z,97892.00
2022-12-27T01:53:05.003Z,97894.00
2022-12-27T01:59:58.243Z,97908.00
2022-12-27T02:04:59.524Z,97901.00
2022-12-27T02:10:02.493Z,97903.00
2022-12-27T02:15:04.319Z,97905.00
2022-12-27T02:20:22.142Z,97897.00
2022-12-27T02:29:52.214Z,97910.00
2022-12-27T02:35:09.026Z,97907.00
2022-12-27T02:40:30.568Z,97904.00
2022-12-27T02:45:56.924Z,97910.00
2022-12-27T02:51:36.489Z,97913.00
2022-12-27T02:57:08.022Z,97910.00
2022-12-27T03:02:44.141Z,97905.00
2022-12-27T03:08:00.319Z,97912.00
2022-12-27T03:14:44.477Z,97910.00
2022-12-27T03:20:09.464Z,97921.00
2022-12-27T03:25:27.776Z,97928.00
2022-12-27T03:31:50.298Z,97917.00
2022-12-27T03:37:12.833Z,97915.00
2022-12-27T03:42:38.779Z,97922.00
2022-12-27T03:47:58.930Z,97923.00
2022-12-27T03:53:13.745Z,97926.00
2022-12-27T03:58:14.959Z,97930.00
2022-12-27T04:03:15.791Z,97929.00
2022-12-27T04:08:35.005Z,97935.00
2022-12-27T04:13:54.473Z,97924.00
2022-12-27T04:19:13.853Z,97932.00
2022-12-27T04:24:33.246Z,97936.00
2022-12-27T04:29:52.940Z,97947.00
2022-12-27T04:34:53.704Z,97947.00
2022-12-27T04:43:26.044Z,97935.00
2022-12-27T04:48:47.231Z,97937.00
2022-12-27T04:54:06.691Z,97934.00
2022-12-27T04:59:26.065Z,97930.00
2022-12-27T05:04:26.849Z,97927.00
2022-12-27T05:09:46.018Z,97922.00
2022-12-27T05:14:46.756Z,97942.00
2022-12-27T05:19:47.597Z,97945.00
2022-12-27T05:25:06.965Z,97956.00
2022-12-27T05:30:09.233Z,97954.00
2022-12-27T05:35:09.948Z,97963.00
2022-12-27T05:40:11.997Z,97963.00
2022-12-27T05:45:13.403Z,97977.00
2022-12-27T05:50:14.319Z,97966.00
2022-12-27T05:55:15.263Z,97964.00
2022-12-27T06:00:16.586Z,97963.00
2022-12-27T06:05:17.321Z,97973.00
2022-12-27T06:10:18.206Z,97968.00
2022-12-27T06:15:18.917Z,97975.00
2022-12-27T06:20:20.846Z,97980.00
2022-12-27T06:25:21.602Z,97985.00
2022-12-27T06:30:22.724Z,97990.00
2022-12-27T06:35:23.522Z,97999.00
2022-12-27T06:40:24.287Z,98000.00
2022-12-27T06:45:25.040Z,98001.00
2022-12-27T06:50:26.232Z,98005.00
2022-12-27T06:55:26.956Z,98004.00
2022-12-27T07:00:27.751Z,98010.00
2022-12-27T07:05:28.477Z,98028.00
2022-12-27T07:10:29.351Z,98037.00
2022-12-27T07:15:30.453Z,98040.00
2022-12-27T07:20:31.215Z,98042.00
2022-12-27T07:25:32.027Z,98044.00
2022-12-27T07:30:32.958Z,98047.00
2022-12-27T07:35:33.959Z,98058.00
2022-12-27T07:40:36.609Z,98072.00
2022-12-27T07:45:37.428Z,98074.00
2022-12-27T07:50:38.349Z,98076.00
2022-12-27T07:55:39.186Z,98071.00
2022-12-27T08:00:40.005Z,98067.00
2022-12-27T08:05:48.773Z,98077.00
2022-12-27T08:10:49.573Z,98079.00
2022-12-27T08:15:51.885Z,98067.00
2022-12-27T08:20:53.236Z,98070.00
2022-12-27T08:25:54.156Z,98074.00
2022-12-27T08:30:54.924Z,98078.00
2022-12-27T08:35:58.228Z,98086.00
2022-12-27T08:40:59.163Z,98086.00
2022-12-27T08:46:04.793Z,98082.00
2022-12-27T08:51:12.556Z,98092.00
2022-12-27T08:56:15.719Z,98084.00
2022-12-27T09:01:17.507Z,98093.00
2022-12-27T09:06:21.385Z,98098.00
2022-12-27T09:11:30.405Z,98110.00
2022-12-27T09:16:33.343Z,98102.00
2022-12-27T09:21:34.380Z,98107.00
2022-12-27T09:26:35.339Z,98108.00
2022-12-27T09:31:36.098Z,98114.00
2022-12-27T09:36:38.765Z,98123.00
2022-12-27T09:42:57.672Z,98114.00
2022-12-27T09:48:11.275Z,98124.00
2022-12-27T09:53:21.237Z,98132.00
2022-12-27T09:58:53.367Z,98133.00
2022-12-27T10:03:54.410Z,98139.00
2022-12-27T10:10:22.814Z,98135.00
2022-12-27T10:18:58.962Z,98133.00
2022-12-27T10:24:18.743Z,98142.00
2022-12-27T10:29:23.196Z,98133.00
2022-12-27T10:34:24.138Z,98126.00
2022-12-27T10:39:31.760Z,98123.00
2022-12-27T10:44:32.853Z,98117.00
2022-12-27T10:49:34.583Z,98113.00
2022-12-27T10:54:54.733Z,98111.00
2022-12-27T11:00:16.989Z,98108.00
2022-12-27T11:05:27.370Z,98097.00
2022-12-27T11:10:30.670Z,98101.00
2022-12-27T11:15:35.878Z,98107.00
2022-12-27T11:20:51.438Z,98103.00
2022-12-27T11:25:55.005Z,98112.00
2022-12-27T11:31:02.457Z,98110.00
2022-12-27T11:36:05.130Z,98115.00
2022-12-27T11:41:19.889Z,98119.00
2022-12-27T11:46:40.706Z,98122.00
2022-12-27T11:52:50.825Z,98113.00
2022-12-27T11:59:50.469Z,98117.00
2022-12-27T12:05:30.078Z,98104.00
2022-12-27T12:11:03.307Z,98101.00
2022-12-27T12:16:32.523Z,98097.00
2022-12-27T12:21:48.783Z,98094.00
2022-12-27T12:27:23.802Z,98087.00
2022-12-27T12:32:42.516Z,98089.00
2022-12-27T12:38:21.398Z,98096.00
2022-12-27T12:45:10.287Z,98099.00
2022-12-27T12:50:25.665Z,98090.00
2022-12-27T12:55:44.515Z,98088.00
2022-12-27T13:01:03.897Z,98092.00
2022-12-27T13:06:45.011Z,98090.00
2022-12-27T13:12:02.084Z,98094.00
2022-12-27T13:17:23.521Z,98072.00
2022-12-27T13:22:59.472Z,98059.00
2022-12-27T13:29:44.767Z,98069.00
2022-12-27T13:37:51.718Z,98059.00
2022-12-27T13:47:50.617Z,98042.00
2022-12-27T13:55:55.998Z,98036.00
2022-12-27T14:04:04.812Z,98046.00
2022-12-27T14:10:14.844Z,98029.00
2022-12-27T14:15:21.092Z,98032.00
2022-12-27T14:22:00.879Z,98023.00
2022-12-27T14:27:49.869Z,98019.00
2022-12-27T14:35:43.365Z,98019.00
2022-12-27T14:42:39.907Z,98022.00
2022-12-27T14:58:49.406Z,98032.00
2022-12-27T15:04:02.342Z,98033.00
2022-12-27T15:11:04.507Z,98051.00
2022-12-27T15:19:13.616Z,98047.00
2022-12-27T15:25:14.390Z,98038.00
2022-12-27T15:30:24.520Z,98042.00
2022-12-27T15:36:58.984Z,98038.00
2022-12-27T15:42:50.648Z,98049.00
2022-12-27T15:48:41.765Z,98032.00
2022-12-27T15:59:49.912Z,98030.00
2022-12-27T16:05:03.776Z,98040.00
2022-12-27T16:11:05.892Z,98038.00
2022-12-27T16:16:50.957Z,98042.00
2022-12-27T16:21:52.142Z,98049.00
2022-12-27T16:27:04.572Z,98040.00
2022-12-27T16:32:26.116Z,98033.00
2022-12-27T16:37:32.727Z,98018.00
2022-12-27T16:43:28.428Z,98026.00
2022-12-27T16:52:00.282Z,98018.00
2022-12-27T16:58:04.821Z,98001.00
2022-12-27T17:05:00.284Z,98008.00
2022-12-27T17:10:34.064Z,98010.00
2022-12-27T17:15:37.228Z,98023.00
2022-12-27T17:20:40.220Z,98015.00
2022-12-27T17:25:51.211Z,98013.00
2022-12-27T17:31:05.638Z,97996.00
2022-12-27T17:36:32.141Z,97987.00
2022-12-27T17:42:15.716Z,97977.00
2022-12-27T17:51:04.547Z,97987.00
2022-12-27T17:56:40.992Z,97990.00
2022-12-27T18:01:49.621Z,97991.00
2022-12-27T18:06:55.617Z,97980.00
2022-12-27T18:11:56.835Z,97982.00
2022-12-27T18:16:58.117Z,97972.00
2022-12-27T18:22:02.438Z,97961.00
2022-12-27T18:27:19.487Z,97949.00
2022-12-27T18:32:22.763Z,97946.00
2022-12-27T18:37:24.168Z,97928.00
2022-12-27T18:42:40.470Z,97925.00
2022-12-27T18:47:46.428Z,97921.00
2022-12-27T18:52:52.962Z,97899.00
2022-12-27T18:58:21.138Z,97903.00
2022-12-27T19:03:24.295Z,97909.00
2022-12-27T19:08:30.418Z,97903.00
2022-12-27T19:13:42.648Z,97889.00
2022-12-27T19:18:50.289Z,97883.00
2022-12-27T19:23:51.123Z,97879.00
2022-12-27T19:29:01.049Z,97876.00
2022-12-27T19:34:07.928Z,97862.00
2022-12-27T19:39:20.335Z,97865.00
2022-12-27T19:44:21.350Z,97862.00
2022-12-27T19:49:41.574Z,97851.00
2022-12-27T19:54:44.915Z,97846.00
2022-12-27T19:59:45.629Z,97830.00
2022-12-27T20:04:47.025Z,97819.00
2022-12-27T20:09:47.938Z,97806.00
2022-12-27T20:14:50.998Z,97809.00
2022-12-27T20:19:51.840Z,97809.00
2022-12-27T20:24:52.642Z,97808.00
2022-12-27T20:29:54.098Z,97797.00
2022-12-27T20:34:55.080Z,97809.00
2022-12-27T20:39:55.804Z,97821.00
2022-12-27T20:44:58.444Z,97817.00
2022-12-27T20:50:00.995Z,97816.00
2022-12-27T20:55:01.820Z,97812.00
2022-12-27T21:00:08.802Z,97809.00
2022-12-27T21:05:09.716Z,97806.00
2022-12-27T21:10:11.054Z,97795.00
2022-12-27T21:15:11.822Z,97801.00
2022-12-27T21:20:13.388Z,97786.00
2022-12-27T21:25:14.297Z,97792.00
2022-12-27T21:30:15.398Z,97784.00
2022-12-27T21:35:16.240Z,97778.00
2022-12-27T21:40:18.439Z,97765.00
2022-12-27T21:45:19.206Z,97765.00
2022-12-27T21:50:19.951Z,97764.00
2022-12-27T21:55:20.721Z,97764.00
2022-12-27T22:00:21.511Z,97759.00
2022-12-27T22:05:22.424Z,97751.00
2022-12-27T22:10:26.532Z,97750.00
2022-12-27T22:15:27.413Z,97737.00
2022-12-27T22:20:28.499Z,97749.00
2022-12-27T22:25:29.252Z,97747.00
2022-12-27T22:30:30.012Z,97739.00
2022-12-27T22:35:31.824Z,97731.00
2022-12-27T22:40:45.292Z,97724.00
2022-12-27T22:45:53.644Z,97723.00
2022-12-27T22:50:54.820Z,97705.00
2022-12-27T22:55:55.642Z,97698.00
2022-12-27T23:00:57.564Z,97704.00
2022-12-27T23:05:59.384Z,97698.00
2022-12-27T23:11:02.850Z,97705.00
2022-12-27T23:16:05.640Z,97697.00
2022-12-27T23:21:21.751Z,97698.00
2022-12-27T23:26:27.025Z,97699.00
2022-12-27T23:31:28.352Z,97683.00
2022-12-27T23:36:33.025Z,97679.00
2022-12-27T23:41:36.319Z,97674.00
2022-12-27T23:46:37.092Z,97661.00
2022-12-27T23:51:37.873Z,97642.00
2022-12-27T23:56:38.701Z,97637.00
